Main page


Airports :

Bauru, São Paulo, Brazil

Bauru Airport

latitude: 22-19S, longitude: 049-04W, elevation: 590 m

Current weather observation

The report was made 52 minutes ago, at 21:00 UTC
Wind 6 kt from the East
Temperature 29°C
Humidity 70%
Pressure 1012 hPa
Visibility 10 km or more
Few clouds at a height of 3000 ft

METAR: SBBU 222100Z 08006KT 9999 FEW030 29/23 Q1012

Time: 18:52 (21:52 UTC)


The report was made 6 hours and 22 minutes ago, at 15:30 UTC
Forecast valid from 22 at 18 UTC to 23 at 06 UTC
Wind 10 kt from the North/Northeast
Visibility 10 km or more
Scattered clouds at a height of 2000 ft
from 22 at 18 UTC to 22 at 20 UTC
Visibility: 8000 m
Broken clouds at a height of 2000 ft
Few clouds at a height of 4000 ft, Cumulonimbus.
thunderstorm in vicinity

TAF: SBBU 221530Z 2218/2306 03010KT 9999 SCT020 TX34/2218Z TN23/2305Z TEMPO 2218/2220 8000 VCTS BKN020 FEW040CB RMK PCO

Weather observations and forecasts of more than 4000 airports (METAR and TAF reports).

The available stations are represented by yellow and red dots on the map.

Hover mouse over dot to see the name of the station.

Then click to see weather observations and forecasts.

To change the map : click on the green buttons with a black cross to zoom in, on the green button with a dash to zoom out, or on the green arrows for adjacent maps.